sensor_id;sensor_type;location;lat;lon;timestamp;P1;durP1;ratioP1;P2;durP2;ratioP2
37065;SDS011;22981;43.080;25.550;2023-07-09T00:01:18;6.28;;;3.90;;
37065;SDS011;22981;43.080;25.550;2023-07-09T00:03:46;23.47;;;3.80;;
37065;SDS011;22981;43.080;25.550;2023-07-09T00:06:15;5.12;;;3.80;;
37065;SDS011;22981;43.080;25.550;2023-07-09T00:08:44;3.90;;;3.42;;
37065;SDS011;22981;43.080;25.550;2023-07-09T00:11:14;3.80;;;3.37;;
37065;SDS011;22981;43.080;25.550;2023-07-09T00:13:42;9.40;;;3.50;;
37065;SDS011;22981;43.080;25.550;2023-07-09T00:16:19;7.80;;;3.35;;
37065;SDS011;22981;43.080;25.550;2023-07-09T00:18:44;3.90;;;3.40;;
37065;SDS011;22981;43.080;25.550;2023-07-09T00:21:13;7.28;;;3.33;;
37065;SDS011;22981;43.080;25.550;2023-07-09T00:23:42;120.33;;;6.67;;
37065;SDS011;22981;43.080;25.550;2023-07-09T00:26:10;94.62;;;6.17;;
37065;SDS011;22981;43.080;25.550;2023-07-09T00:28:40;66.40;;;5.22;;
37065;SDS011;22981;43.080;25.550;2023-07-09T00:31:15;44.45;;;4.05;;
37065;SDS011;22981;43.080;25.550;2023-07-09T00:33:42;8.48;;;2.90;;
37065;SDS011;22981;43.080;25.550;2023-07-09T00:36:16;5.12;;;2.55;;
37065;SDS011;22981;43.080;25.550;2023-07-09T00:38:49;3.85;;;2.37;;
37065;SDS011;22981;43.080;25.550;2023-07-09T00:41:18;11.20;;;2.80;;
37065;SDS011;22981;43.080;25.550;2023-07-09T00:43:48;17.05;;;3.20;;
37065;SDS011;22981;43.080;25.550;2023-07-09T00:48:53;64.22;;;4.47;;
37065;SDS011;22981;43.080;25.550;2023-07-09T00:51:23;8.73;;;3.10;;
37065;SDS011;22981;43.080;25.550;2023-07-09T00:53:54;6.78;;;3.17;;
37065;SDS011;22981;43.080;25.550;2023-07-09T00:56:28;11.88;;;3.10;;
37065;SDS011;22981;43.080;25.550;2023-07-09T00:58:58;4.67;;;2.60;;
37065;SDS011;22981;43.080;25.550;2023-07-09T01:01:30;3.27;;;1.83;;
37065;SDS011;22981;43.080;25.550;2023-07-09T01:03:59;4.70;;;2.25;;
37065;SDS011;22981;43.080;25.550;2023-07-09T01:06:33;3.27;;;2.02;;
37065;SDS011;22981;43.080;25.550;2023-07-09T01:09:08;34.70;;;3.15;;
37065;SDS011;22981;43.080;25.550;2023-07-09T01:11:36;8.18;;;2.20;;
37065;SDS011;22981;43.080;25.550;2023-07-09T01:14:07;1.92;;;1.82;;
37065;SDS011;22981;43.080;25.550;2023-07-09T01:16:40;4.62;;;2.02;;
37065;SDS011;22981;43.080;25.550;2023-07-09T01:19:07;33.63;;;2.85;;
37065;SDS011;22981;43.080;25.550;2023-07-09T01:21:35;2.08;;;1.60;;
37065;SDS011;22981;43.080;25.550;2023-07-09T01:24:12;4.75;;;1.62;;
37065;SDS011;22981;43.080;25.550;2023-07-09T01:26:43;5.00;;;1.67;;
37065;SDS011;22981;43.080;25.550;2023-07-09T01:29:12;6.03;;;1.72;;
37065;SDS011;22981;43.080;25.550;2023-07-09T01:31:39;2.15;;;1.92;;
37065;SDS011;22981;43.080;25.550;2023-07-09T01:34:07;6.20;;;1.67;;
37065;SDS011;22981;43.080;25.550;2023-07-09T01:36:34;4.95;;;1.70;;
37065;SDS011;22981;43.080;25.550;2023-07-09T01:39:04;1.85;;;1.70;;
37065;SDS011;22981;43.080;25.550;2023-07-09T01:41:31;16.85;;;1.82;;
37065;SDS011;22981;43.080;25.550;2023-07-09T01:44:00;3.65;;;1.20;;
37065;SDS011;22981;43.080;25.550;2023-07-09T01:46:27;1.40;;;1.25;;
37065;SDS011;22981;43.080;25.550;2023-07-09T01:48:55;2.05;;;1.10;;
37065;SDS011;22981;43.080;25.550;2023-07-09T01:51:23;5.53;;;1.00;;
37065;SDS011;22981;43.080;25.550;2023-07-09T01:53:52;2.10;;;1.20;;
37065;SDS011;22981;43.080;25.550;2023-07-09T01:56:20;2.77;;;1.40;;
37065;SDS011;22981;43.080;25.550;2023-07-09T01:58:49;7.70;;;1.90;;
37065;SDS011;22981;43.080;25.550;2023-07-09T02:01:17;2.02;;;0.98;;
37065;SDS011;22981;43.080;25.550;2023-07-09T02:03:45;8.03;;;1.52;;
37065;SDS011;22981;43.080;25.550;2023-07-09T02:06:12;5.20;;;1.35;;
37065;SDS011;22981;43.080;25.550;2023-07-09T02:08:40;2.65;;;1.10;;
37065;SDS011;22981;43.080;25.550;2023-07-09T02:11:07;3.83;;;1.45;;
37065;SDS011;22981;43.080;25.550;2023-07-09T02:13:35;3.42;;;1.10;;
37065;SDS011;22981;43.080;25.550;2023-07-09T02:16:03;1.12;;;1.10;;
37065;SDS011;22981;43.080;25.550;2023-07-09T02:18:30;15.58;;;2.33;;
37065;SDS011;22981;43.080;25.550;2023-07-09T02:20:58;2.47;;;1.50;;
37065;SDS011;22981;43.080;25.550;2023-07-09T02:23:26;10.65;;;2.00;;
37065;SDS011;22981;43.080;25.550;2023-07-09T02:25:55;16.52;;;1.70;;
37065;SDS011;22981;43.080;25.550;2023-07-09T02:28:23;10.82;;;1.87;;
37065;SDS011;22981;43.080;25.550;2023-07-09T02:30:50;4.75;;;1.65;;
37065;SDS011;22981;43.080;25.550;2023-07-09T02:33:18;2.35;;;1.50;;
37065;SDS011;22981;43.080;25.550;2023-07-09T02:35:46;2.55;;;1.45;;
37065;SDS011;22981;43.080;25.550;2023-07-09T02:38:14;14.45;;;2.83;;
37065;SDS011;22981;43.080;25.550;2023-07-09T02:40:41;10.03;;;2.50;;
37065;SDS011;22981;43.080;25.550;2023-07-09T02:43:09;5.67;;;2.12;;
37065;SDS011;22981;43.080;25.550;2023-07-09T02:45:36;3.98;;;2.30;;
37065;SDS011;22981;43.080;25.550;2023-07-09T03:02:10;5.75;;;2.83;;
37065;SDS011;22981;43.080;25.550;2023-07-09T03:04:38;15.40;;;3.42;;
37065;SDS011;22981;43.080;25.550;2023-07-09T03:07:06;6.10;;;2.77;;
37065;SDS011;22981;43.080;25.550;2023-07-09T03:09:33;3.90;;;2.70;;
37065;SDS011;22981;43.080;25.550;2023-07-09T03:12:01;4.53;;;2.90;;
37065;SDS011;22981;43.080;25.550;2023-07-09T03:14:28;3.77;;;3.00;;
37065;SDS011;22981;43.080;25.550;2023-07-09T03:16:56;24.10;;;3.67;;
37065;SDS011;22981;43.080;25.550;2023-07-09T03:19:23;5.10;;;2.90;;
37065;SDS011;22981;43.080;25.550;2023-07-09T03:21:51;12.55;;;4.05;;
37065;SDS011;22981;43.080;25.550;2023-07-09T03:24:18;7.17;;;3.62;;
37065;SDS011;22981;43.080;25.550;2023-07-09T03:26:46;29.95;;;4.10;;
37065;SDS011;22981;43.080;25.550;2023-07-09T03:29:14;10.93;;;3.52;;
37065;SDS011;22981;43.080;25.550;2023-07-09T03:31:42;10.70;;;3.62;;
37065;SDS011;22981;43.080;25.550;2023-07-09T03:34:09;10.03;;;4.62;;
37065;SDS011;22981;43.080;25.550;2023-07-09T03:36:37;30.55;;;4.90;;
37065;SDS011;22981;43.080;25.550;2023-07-09T03:39:05;13.93;;;3.20;;
37065;SDS011;22981;43.080;25.550;2023-07-09T03:41:33;6.30;;;2.70;;
37065;SDS011;22981;43.080;25.550;2023-07-09T03:44:01;18.65;;;2.95;;
37065;SDS011;22981;43.080;25.550;2023-07-09T03:46:28;13.65;;;2.72;;
37065;SDS011;22981;43.080;25.550;2023-07-09T03:48:57;26.90;;;3.42;;
37065;SDS011;22981;43.080;25.550;2023-07-09T03:51:26;36.10;;;2.98;;
37065;SDS011;22981;43.080;25.550;2023-07-09T03:53:53;10.25;;;2.12;;
37065;SDS011;22981;43.080;25.550;2023-07-09T03:56:21;4.35;;;1.87;;
37065;SDS011;22981;43.080;25.550;2023-07-09T03:58:48;2.22;;;2.00;;
37065;SDS011;22981;43.080;25.550;2023-07-09T04:01:16;10.05;;;2.37;;
37065;SDS011;22981;43.080;25.550;2023-07-09T04:03:44;13.05;;;2.42;;
37065;SDS011;22981;43.080;25.550;2023-07-09T04:06:11;60.00;;;4.25;;
37065;SDS011;22981;43.080;25.550;2023-07-09T04:08:39;21.37;;;3.30;;
37065;SDS011;22981;43.080;25.550;2023-07-09T04:11:06;15.60;;;3.27;;
37065;SDS011;22981;43.080;25.550;2023-07-09T04:13:34;35.05;;;4.50;;
37065;SDS011;22981;43.080;25.550;2023-07-09T04:16:02;41.55;;;4.50;;
37065;SDS011;22981;43.080;25.550;2023-07-09T04:18:29;14.43;;;3.77;;
37065;SDS011;22981;43.080;25.550;2023-07-09T04:20:57;7.92;;;3.08;;
37065;SDS011;22981;43.080;25.550;2023-07-09T04:23:24;28.30;;;5.15;;
37065;SDS011;22981;43.080;25.550;2023-07-09T04:25:52;14.45;;;3.90;;
37065;SDS011;22981;43.080;25.550;2023-07-09T04:28:19;47.03;;;4.75;;
37065;SDS011;22981;43.080;25.550;2023-07-09T04:30:52;18.62;;;3.72;;
37065;SDS011;22981;43.080;25.550;2023-07-09T04:33:18;28.60;;;5.45;;
37065;SDS011;22981;43.080;25.550;2023-07-09T04:35:46;39.03;;;5.28;;
37065;SDS011;22981;43.080;25.550;2023-07-09T04:38:14;85.60;;;7.47;;
37065;SDS011;22981;43.080;25.550;2023-07-09T04:40:42;81.22;;;6.97;;
37065;SDS011;22981;43.080;25.550;2023-07-09T04:43:10;8.08;;;6.03;;
37065;SDS011;22981;43.080;25.550;2023-07-09T04:45:38;53.40;;;6.42;;
37065;SDS011;22981;43.080;25.550;2023-07-09T04:48:05;65.20;;;6.78;;
37065;SDS011;22981;43.080;25.550;2023-07-09T04:50:33;9.18;;;5.65;;
37065;SDS011;22981;43.080;25.550;2023-07-09T04:53:01;76.53;;;7.33;;
37065;SDS011;22981;43.080;25.550;2023-07-09T04:55:29;14.38;;;6.33;;
37065;SDS011;22981;43.080;25.550;2023-07-09T04:57:59;7.53;;;5.78;;
37065;SDS011;22981;43.080;25.550;2023-07-09T05:00:27;10.10;;;5.97;;
37065;SDS011;22981;43.080;25.550;2023-07-09T05:02:54;36.25;;;6.37;;
37065;SDS011;22981;43.080;25.550;2023-07-09T05:05:23;117.85;;;8.50;;
37065;SDS011;22981;43.080;25.550;2023-07-09T05:07:50;79.27;;;7.67;;
37065;SDS011;22981;43.080;25.550;2023-07-09T05:10:18;18.50;;;6.12;;
37065;SDS011;22981;43.080;25.550;2023-07-09T05:12:49;15.93;;;6.10;;
37065;SDS011;22981;43.080;25.550;2023-07-09T05:15:18;5.93;;;5.43;;
37065;SDS011;22981;43.080;25.550;2023-07-09T05:17:47;5.95;;;5.35;;
37065;SDS011;22981;43.080;25.550;2023-07-09T05:20:15;16.95;;;5.60;;
37065;SDS011;22981;43.080;25.550;2023-07-09T05:22:42;11.70;;;6.33;;
37065;SDS011;22981;43.080;25.550;2023-07-09T05:25:10;6.90;;;5.97;;
37065;SDS011;22981;43.080;25.550;2023-07-09T05:27:38;8.30;;;5.97;;
37065;SDS011;22981;43.080;25.550;2023-07-09T05:30:06;6.50;;;5.37;;
37065;SDS011;22981;43.080;25.550;2023-07-09T05:32:36;5.58;;;4.95;;
37065;SDS011;22981;43.080;25.550;2023-07-09T05:35:04;5.28;;;4.80;;
37065;SDS011;22981;43.080;25.550;2023-07-09T05:37:32;5.62;;;5.05;;
37065;SDS011;22981;43.080;25.550;2023-07-09T05:40:00;7.53;;;5.70;;
37065;SDS011;22981;43.080;25.550;2023-07-09T05:42:30;7.10;;;5.92;;
37065;SDS011;22981;43.080;25.550;2023-07-09T05:44:58;10.85;;;5.03;;
37065;SDS011;22981;43.080;25.550;2023-07-09T05:47:26;6.08;;;5.10;;
37065;SDS011;22981;43.080;25.550;2023-07-09T05:49:53;5.35;;;4.87;;
37065;SDS011;22981;43.080;25.550;2023-07-09T05:52:22;4.92;;;4.20;;
37065;SDS011;22981;43.080;25.550;2023-07-09T05:54:50;6.17;;;4.75;;
37065;SDS011;22981;43.080;25.550;2023-07-09T05:57:18;4.65;;;4.17;;
37065;SDS011;22981;43.080;25.550;2023-07-09T05:59:46;8.15;;;4.70;;
37065;SDS011;22981;43.080;25.550;2023-07-09T06:02:15;8.00;;;4.70;;
37065;SDS011;22981;43.080;25.550;2023-07-09T06:04:45;5.55;;;4.37;;
37065;SDS011;22981;43.080;25.550;2023-07-09T06:07:14;8.08;;;4.47;;
37065;SDS011;22981;43.080;25.550;2023-07-09T06:09:44;5.42;;;4.50;;
37065;SDS011;22981;43.080;25.550;2023-07-09T06:12:11;7.05;;;4.70;;
37065;SDS011;22981;43.080;25.550;2023-07-09T06:14:39;6.10;;;4.60;;
37065;SDS011;22981;43.080;25.550;2023-07-09T06:17:09;6.20;;;4.70;;
37065;SDS011;22981;43.080;25.550;2023-07-09T06:19:36;8.15;;;5.15;;
37065;SDS011;22981;43.080;25.550;2023-07-09T06:22:04;11.60;;;4.30;;
37065;SDS011;22981;43.080;25.550;2023-07-09T06:24:32;7.78;;;4.70;;
37065;SDS011;22981;43.080;25.550;2023-07-09T06:27:00;5.62;;;4.22;;
37065;SDS011;22981;43.080;25.550;2023-07-09T06:29:27;7.97;;;4.58;;
37065;SDS011;22981;43.080;25.550;2023-07-09T06:31:55;9.08;;;4.53;;
37065;SDS011;22981;43.080;25.550;2023-07-09T06:34:23;6.45;;;5.05;;
37065;SDS011;22981;43.080;25.550;2023-07-09T06:36:50;6.20;;;4.10;;
37065;SDS011;22981;43.080;25.550;2023-07-09T06:39:18;6.55;;;4.65;;
37065;SDS011;22981;43.080;25.550;2023-07-09T06:41:46;6.08;;;4.28;;
37065;SDS011;22981;43.080;25.550;2023-07-09T06:44:13;7.53;;;5.10;;
37065;SDS011;22981;43.080;25.550;2023-07-09T06:46:41;6.47;;;4.78;;
37065;SDS011;22981;43.080;25.550;2023-07-09T06:49:10;8.43;;;4.97;;
37065;SDS011;22981;43.080;25.550;2023-07-09T06:51:38;11.83;;;5.42;;
37065;SDS011;22981;43.080;25.550;2023-07-09T06:54:05;8.83;;;4.47;;
37065;SDS011;22981;43.080;25.550;2023-07-09T06:56:34;8.68;;;4.47;;
37065;SDS011;22981;43.080;25.550;2023-07-09T06:59:02;7.50;;;4.60;;
37065;SDS011;22981;43.080;25.550;2023-07-09T07:01:29;6.10;;;4.40;;
37065;SDS011;22981;43.080;25.550;2023-07-09T07:03:58;7.92;;;4.20;;
37065;SDS011;22981;43.080;25.550;2023-07-09T07:06:26;7.03;;;4.83;;
37065;SDS011;22981;43.080;25.550;2023-07-09T07:08:53;4.92;;;4.22;;
37065;SDS011;22981;43.080;25.550;2023-07-09T07:11:21;4.92;;;4.22;;
37065;SDS011;22981;43.080;25.550;2023-07-09T07:13:48;9.25;;;4.95;;
37065;SDS011;22981;43.080;25.550;2023-07-09T07:16:17;6.17;;;4.80;;
37065;SDS011;22981;43.080;25.550;2023-07-09T07:18:45;7.83;;;4.42;;
37065;SDS011;22981;43.080;25.550;2023-07-09T07:21:13;10.85;;;4.60;;
37065;SDS011;22981;43.080;25.550;2023-07-09T07:23:40;6.10;;;4.70;;
37065;SDS011;22981;43.080;25.550;2023-07-09T07:26:08;5.65;;;4.40;;
37065;SDS011;22981;43.080;25.550;2023-07-09T07:28:35;7.33;;;3.90;;
37065;SDS011;22981;43.080;25.550;2023-07-09T07:31:08;5.17;;;3.92;;
37065;SDS011;22981;43.080;25.550;2023-07-09T07:33:34;6.42;;;4.22;;
37065;SDS011;22981;43.080;25.550;2023-07-09T07:36:05;5.42;;;3.77;;
37065;SDS011;22981;43.080;25.550;2023-07-09T07:38:33;6.90;;;3.80;;
37065;SDS011;22981;43.080;25.550;2023-07-09T07:41:01;5.72;;;3.40;;
37065;SDS011;22981;43.080;25.550;2023-07-09T07:43:29;5.58;;;3.20;;
37065;SDS011;22981;43.080;25.550;2023-07-09T07:45:57;5.55;;;3.80;;
37065;SDS011;22981;43.080;25.550;2023-07-09T07:48:24;4.85;;;3.60;;
37065;SDS011;22981;43.080;25.550;2023-07-09T07:50:54;6.40;;;3.58;;
37065;SDS011;22981;43.080;25.550;2023-07-09T07:53:35;3.95;;;3.37;;
37065;SDS011;22981;43.080;25.550;2023-07-09T07:56:05;4.53;;;3.20;;
37065;SDS011;22981;43.080;25.550;2023-07-09T07:58:39;4.08;;;3.10;;
37065;SDS011;22981;43.080;25.550;2023-07-09T08:01:13;4.05;;;3.10;;
37065;SDS011;22981;43.080;25.550;2023-07-09T08:03:42;2.80;;;2.45;;
37065;SDS011;22981;43.080;25.550;2023-07-09T08:06:09;6.70;;;3.58;;
37065;SDS011;22981;43.080;25.550;2023-07-09T08:08:37;5.22;;;3.70;;
37065;SDS011;22981;43.080;25.550;2023-07-09T08:11:06;7.37;;;3.22;;
37065;SDS011;22981;43.080;25.550;2023-07-09T08:13:34;6.72;;;3.52;;
37065;SDS011;22981;43.080;25.550;2023-07-09T08:16:02;4.67;;;3.15;;
37065;SDS011;22981;43.080;25.550;2023-07-09T08:18:30;5.87;;;3.62;;
37065;SDS011;22981;43.080;25.550;2023-07-09T08:20:58;5.08;;;3.27;;
37065;SDS011;22981;43.080;25.550;2023-07-09T08:23:26;4.72;;;3.40;;
37065;SDS011;22981;43.080;25.550;2023-07-09T08:25:55;6.60;;;3.58;;
37065;SDS011;22981;43.080;25.550;2023-07-09T08:28:23;4.80;;;3.37;;
37065;SDS011;22981;43.080;25.550;2023-07-09T08:30:54;6.05;;;3.70;;
37065;SDS011;22981;43.080;25.550;2023-07-09T08:33:22;4.22;;;3.60;;
37065;SDS011;22981;43.080;25.550;2023-07-09T08:35:51;7.42;;;4.20;;
37065;SDS011;22981;43.080;25.550;2023-07-09T08:38:20;5.08;;;3.60;;
37065;SDS011;22981;43.080;25.550;2023-07-09T08:40:54;5.00;;;3.47;;
37065;SDS011;22981;43.080;25.550;2023-07-09T08:46:15;3.37;;;3.08;;
37065;SDS011;22981;43.080;25.550;2023-07-09T08:48:57;6.20;;;3.17;;
37065;SDS011;22981;43.080;25.550;2023-07-09T08:51:38;4.17;;;3.45;;
37065;SDS011;22981;43.080;25.550;2023-07-09T08:54:04;6.97;;;3.75;;
37065;SDS011;22981;43.080;25.550;2023-07-09T08:56:34;6.33;;;3.20;;
37065;SDS011;22981;43.080;25.550;2023-07-09T08:59:02;6.25;;;3.40;;
37065;SDS011;22981;43.080;25.550;2023-07-09T09:01:34;4.22;;;3.20;;
37065;SDS011;22981;43.080;25.550;2023-07-09T09:04:03;3.98;;;3.30;;
37065;SDS011;22981;43.080;25.550;2023-07-09T09:06:31;9.18;;;3.80;;
37065;SDS011;22981;43.080;25.550;2023-07-09T09:16:56;4.12;;;3.30;;
37065;SDS011;22981;43.080;25.550;2023-07-09T09:19:33;6.55;;;4.03;;
37065;SDS011;22981;43.080;25.550;2023-07-09T09:22:10;6.92;;;3.70;;
37065;SDS011;22981;43.080;25.550;2023-07-09T09:27:26;6.90;;;3.42;;
37065;SDS011;22981;43.080;25.550;2023-07-09T09:29:54;6.40;;;3.58;;
37065;SDS011;22981;43.080;25.550;2023-07-09T09:32:25;8.23;;;6.10;;
37065;SDS011;22981;43.080;25.550;2023-07-09T09:34:55;9.00;;;4.40;;
37065;SDS011;22981;43.080;25.550;2023-07-09T09:37:25;4.70;;;3.92;;
37065;SDS011;22981;43.080;25.550;2023-07-09T09:39:53;4.70;;;3.22;;
37065;SDS011;22981;43.080;25.550;2023-07-09T09:42:23;4.70;;;3.27;;
37065;SDS011;22981;43.080;25.550;2023-07-09T09:44:53;6.87;;;3.70;;
37065;SDS011;22981;43.080;25.550;2023-07-09T09:47:21;3.15;;;2.85;;
37065;SDS011;22981;43.080;25.550;2023-07-09T09:49:52;6.50;;;3.67;;
37065;SDS011;22981;43.080;25.550;2023-07-09T09:52:19;3.77;;;3.33;;
37065;SDS011;22981;43.080;25.550;2023-07-09T09:54:55;8.38;;;3.60;;
37065;SDS011;22981;43.080;25.550;2023-07-09T09:57:24;5.25;;;3.40;;
37065;SDS011;22981;43.080;25.550;2023-07-09T09:59:54;6.42;;;3.35;;
37065;SDS011;22981;43.080;25.550;2023-07-09T10:02:23;4.72;;;3.42;;
37065;SDS011;22981;43.080;25.550;2023-07-09T10:04:51;3.40;;;3.10;;
37065;SDS011;22981;43.080;25.550;2023-07-09T10:07:34;3.87;;;3.17;;
37065;SDS011;22981;43.080;25.550;2023-07-09T10:09:58;6.50;;;3.20;;
37065;SDS011;22981;43.080;25.550;2023-07-09T10:21:08;6.25;;;3.17;;
37065;SDS011;22981;43.080;25.550;2023-07-09T10:26:34;4.75;;;3.70;;
37065;SDS011;22981;43.080;25.550;2023-07-09T10:32:08;3.72;;;2.83;;
37065;SDS011;22981;43.080;25.550;2023-07-09T10:34:43;5.72;;;3.45;;
37065;SDS011;22981;43.080;25.550;2023-07-09T10:40:14;6.17;;;3.02;;
37065;SDS011;22981;43.080;25.550;2023-07-09T10:42:45;5.10;;;3.17;;
37065;SDS011;22981;43.080;25.550;2023-07-09T10:45:18;4.00;;;3.40;;
37065;SDS011;22981;43.080;25.550;2023-07-09T10:47:59;6.17;;;3.70;;
37065;SDS011;22981;43.080;25.550;2023-07-09T10:50:38;6.35;;;3.80;;
37065;SDS011;22981;43.080;25.550;2023-07-09T10:53:23;6.85;;;4.45;;
37065;SDS011;22981;43.080;25.550;2023-07-09T10:55:53;7.22;;;3.45;;
37065;SDS011;22981;43.080;25.550;2023-07-09T10:58:31;4.60;;;3.60;;
37065;SDS011;22981;43.080;25.550;2023-07-09T11:01:05;6.55;;;3.72;;
37065;SDS011;22981;43.080;25.550;2023-07-09T11:03:44;5.90;;;3.58;;
37065;SDS011;22981;43.080;25.550;2023-07-09T11:06:19;6.90;;;4.20;;
37065;SDS011;22981;43.080;25.550;2023-07-09T11:08:57;9.70;;;4.10;;
37065;SDS011;22981;43.080;25.550;2023-07-09T11:11:32;5.97;;;3.10;;
37065;SDS011;22981;43.080;25.550;2023-07-09T11:14:02;5.00;;;2.60;;
37065;SDS011;22981;43.080;25.550;2023-07-09T11:16:39;3.50;;;2.83;;
37065;SDS011;22981;43.080;25.550;2023-07-09T11:19:06;6.80;;;3.10;;
37065;SDS011;22981;43.080;25.550;2023-07-09T11:24:35;6.30;;;2.55;;
37065;SDS011;22981;43.080;25.550;2023-07-09T11:27:15;4.10;;;2.60;;
37065;SDS011;22981;43.080;25.550;2023-07-09T11:29:34;2.98;;;2.65;;
37065;SDS011;22981;43.080;25.550;2023-07-09T11:32:08;2.98;;;2.60;;
37065;SDS011;22981;43.080;25.550;2023-07-09T11:34:44;3.17;;;2.80;;
37065;SDS011;22981;43.080;25.550;2023-07-09T11:37:15;5.67;;;3.15;;
37065;SDS011;22981;43.080;25.550;2023-07-09T11:39:44;5.00;;;3.02;;
37065;SDS011;22981;43.080;25.550;2023-07-09T11:42:25;4.40;;;2.75;;
37065;SDS011;22981;43.080;25.550;2023-07-09T11:44:59;6.03;;;2.50;;
37065;SDS011;22981;43.080;25.550;2023-07-09T11:47:42;2.65;;;2.30;;
37065;SDS011;22981;43.080;25.550;2023-07-09T11:50:34;3.77;;;2.27;;
37065;SDS011;22981;43.080;25.550;2023-07-09T11:55:43;3.55;;;2.37;;
37065;SDS011;22981;43.080;25.550;2023-07-09T11:58:14;4.58;;;2.30;;
37065;SDS011;22981;43.080;25.550;2023-07-09T12:00:44;5.85;;;2.47;;
37065;SDS011;22981;43.080;25.550;2023-07-09T12:03:23;5.67;;;2.70;;
37065;SDS011;22981;43.080;25.550;2023-07-09T12:06:02;3.77;;;2.83;;
37065;SDS011;22981;43.080;25.550;2023-07-09T12:08:35;3.67;;;2.72;;
37065;SDS011;22981;43.080;25.550;2023-07-09T12:11:03;3.85;;;2.58;;
37065;SDS011;22981;43.080;25.550;2023-07-09T12:13:38;3.75;;;2.80;;
37065;SDS011;22981;43.080;25.550;2023-07-09T12:18:53;5.05;;;3.00;;
37065;SDS011;22981;43.080;25.550;2023-07-09T12:21:24;4.55;;;2.95;;
37065;SDS011;22981;43.080;25.550;2023-07-09T12:23:53;5.12;;;2.95;;
37065;SDS011;22981;43.080;25.550;2023-07-09T12:26:24;3.10;;;2.37;;
37065;SDS011;22981;43.080;25.550;2023-07-09T12:28:52;5.08;;;3.12;;
37065;SDS011;22981;43.080;25.550;2023-07-09T12:31:24;4.90;;;3.00;;
37065;SDS011;22981;43.080;25.550;2023-07-09T12:33:55;5.05;;;3.17;;
37065;SDS011;22981;43.080;25.550;2023-07-09T12:36:24;3.65;;;2.83;;
37065;SDS011;22981;43.080;25.550;2023-07-09T12:38:53;4.85;;;2.92;;
37065;SDS011;22981;43.080;25.550;2023-07-09T12:41:36;3.47;;;2.85;;
37065;SDS011;22981;43.080;25.550;2023-07-09T12:44:27;3.33;;;3.02;;
37065;SDS011;22981;43.080;25.550;2023-07-09T12:46:48;4.33;;;2.95;;
37065;SDS011;22981;43.080;25.550;2023-07-09T12:49:26;4.70;;;2.67;;
37065;SDS011;22981;43.080;25.550;2023-07-09T12:51:56;5.17;;;3.02;;
37065;SDS011;22981;43.080;25.550;2023-07-09T12:54:25;3.40;;;3.02;;
37065;SDS011;22981;43.080;25.550;2023-07-09T12:56:55;3.37;;;3.00;;
37065;SDS011;22981;43.080;25.550;2023-07-09T12:59:26;4.55;;;3.00;;
37065;SDS011;22981;43.080;25.550;2023-07-09T13:02:16;4.17;;;3.10;;
37065;SDS011;22981;43.080;25.550;2023-07-09T13:05:00;4.90;;;3.10;;
37065;SDS011;22981;43.080;25.550;2023-07-09T13:07:31;3.33;;;2.85;;
37065;SDS011;22981;43.080;25.550;2023-07-09T13:10:05;5.17;;;3.62;;
37065;SDS011;22981;43.080;25.550;2023-07-09T13:12:34;4.60;;;3.17;;
37065;SDS011;22981;43.080;25.550;2023-07-09T13:15:18;3.35;;;2.98;;
37065;SDS011;22981;43.080;25.550;2023-07-09T13:18:04;5.65;;;3.25;;
37065;SDS011;22981;43.080;25.550;2023-07-09T13:20:31;5.50;;;3.37;;
37065;SDS011;22981;43.080;25.550;2023-07-09T13:23:04;8.70;;;3.52;;
37065;SDS011;22981;43.080;25.550;2023-07-09T13:25:33;4.50;;;3.10;;
37065;SDS011;22981;43.080;25.550;2023-07-09T13:28:01;4.62;;;2.92;;
37065;SDS011;22981;43.080;25.550;2023-07-09T13:30:29;4.45;;;2.85;;
37065;SDS011;22981;43.080;25.550;2023-07-09T13:32:57;3.15;;;2.85;;
37065;SDS011;22981;43.080;25.550;2023-07-09T13:35:24;3.75;;;2.92;;
37065;SDS011;22981;43.080;25.550;2023-07-09T13:37:52;3.00;;;2.42;;
37065;SDS011;22981;43.080;25.550;2023-07-09T13:40:20;3.55;;;3.00;;
37065;SDS011;22981;43.080;25.550;2023-07-09T13:42:47;3.80;;;2.90;;
37065;SDS011;22981;43.080;25.550;2023-07-09T13:45:16;6.33;;;3.20;;
37065;SDS011;22981;43.080;25.550;2023-07-09T13:47:45;3.08;;;2.67;;
37065;SDS011;22981;43.080;25.550;2023-07-09T13:50:14;3.77;;;2.98;;
37065;SDS011;22981;43.080;25.550;2023-07-09T13:52:42;8.90;;;3.17;;
37065;SDS011;22981;43.080;25.550;2023-07-09T13:55:18;4.78;;;2.98;;
37065;SDS011;22981;43.080;25.550;2023-07-09T13:57:49;4.78;;;3.02;;
37065;SDS011;22981;43.080;25.550;2023-07-09T14:00:18;4.75;;;2.70;;
37065;SDS011;22981;43.080;25.550;2023-07-09T14:02:47;3.17;;;2.80;;
37065;SDS011;22981;43.080;25.550;2023-07-09T14:05:16;4.10;;;2.60;;
37065;SDS011;22981;43.080;25.550;2023-07-09T14:07:44;5.47;;;3.33;;
37065;SDS011;22981;43.080;25.550;2023-07-09T14:10:13;4.40;;;3.17;;
37065;SDS011;22981;43.080;25.550;2023-07-09T14:15:18;4.85;;;2.87;;
37065;SDS011;22981;43.080;25.550;2023-07-09T14:17:43;12.73;;;3.20;;
37065;SDS011;22981;43.080;25.550;2023-07-09T14:20:12;5.90;;;3.12;;
37065;SDS011;22981;43.080;25.550;2023-07-09T14:22:41;3.87;;;2.85;;
37065;SDS011;22981;43.080;25.550;2023-07-09T14:25:20;6.53;;;3.35;;
37065;SDS011;22981;43.080;25.550;2023-07-09T14:27:42;4.62;;;3.30;;
37065;SDS011;22981;43.080;25.550;2023-07-09T14:30:13;4.47;;;3.20;;
37065;SDS011;22981;43.080;25.550;2023-07-09T14:32:43;3.15;;;2.77;;
37065;SDS011;22981;43.080;25.550;2023-07-09T14:35:17;4.35;;;2.87;;
37065;SDS011;22981;43.080;25.550;2023-07-09T14:37:47;3.75;;;2.55;;
37065;SDS011;22981;43.080;25.550;2023-07-09T14:40:17;5.33;;;2.83;;
37065;SDS011;22981;43.080;25.550;2023-07-09T14:42:46;4.92;;;2.90;;
37065;SDS011;22981;43.080;25.550;2023-07-09T14:45:16;7.75;;;2.90;;
37065;SDS011;22981;43.080;25.550;2023-07-09T14:47:53;5.55;;;3.12;;
37065;SDS011;22981;43.080;25.550;2023-07-09T14:50:21;3.72;;;2.87;;
37065;SDS011;22981;43.080;25.550;2023-07-09T14:52:50;5.03;;;3.05;;
37065;SDS011;22981;43.080;25.550;2023-07-09T14:55:19;4.50;;;3.22;;
37065;SDS011;22981;43.080;25.550;2023-07-09T14:57:49;6.20;;;3.65;;
37065;SDS011;22981;43.080;25.550;2023-07-09T15:00:18;5.42;;;3.27;;
37065;SDS011;22981;43.080;25.550;2023-07-09T15:02:49;5.60;;;3.17;;
37065;SDS011;22981;43.080;25.550;2023-07-09T15:05:22;5.75;;;2.85;;
37065;SDS011;22981;43.080;25.550;2023-07-09T15:07:55;2.98;;;2.77;;
37065;SDS011;22981;43.080;25.550;2023-07-09T15:10:26;3.98;;;2.80;;
37065;SDS011;22981;43.080;25.550;2023-07-09T15:12:54;3.85;;;2.92;;
37065;SDS011;22981;43.080;25.550;2023-07-09T15:15:27;5.80;;;3.37;;
37065;SDS011;22981;43.080;25.550;2023-07-09T15:17:56;8.08;;;3.35;;
37065;SDS011;22981;43.080;25.550;2023-07-09T15:20:26;5.45;;;3.10;;
37065;SDS011;22981;43.080;25.550;2023-07-09T15:22:57;4.30;;;3.10;;
37065;SDS011;22981;43.080;25.550;2023-07-09T15:25:27;4.20;;;2.85;;
37065;SDS011;22981;43.080;25.550;2023-07-09T15:27:57;6.47;;;3.40;;
37065;SDS011;22981;43.080;25.550;2023-07-09T15:30:26;5.40;;;3.60;;
37065;SDS011;22981;43.080;25.550;2023-07-09T15:32:56;5.53;;;3.37;;
37065;SDS011;22981;43.080;25.550;2023-07-09T15:35:26;7.12;;;4.10;;
37065;SDS011;22981;43.080;25.550;2023-07-09T15:37:59;6.12;;;3.33;;
37065;SDS011;22981;43.080;25.550;2023-07-09T15:40:28;6.40;;;3.12;;
37065;SDS011;22981;43.080;25.550;2023-07-09T15:43:08;4.72;;;3.30;;
37065;SDS011;22981;43.080;25.550;2023-07-09T15:45:31;6.08;;;3.83;;